sensor_id;sensor_type;location;lat;lon;timestamp;pressure;altitude;pressure_sealevel;temperature;humidity
46942;BME280;32676;52.630;4.896;2023-04-15T00:01:25;100200.41;;;8.98;69.67
46942;BME280;32676;52.630;4.896;2023-04-15T00:03:53;100204.75;;;8.99;69.69
46942;BME280;32676;52.630;4.896;2023-04-15T00:06:19;100207.38;;;8.99;69.87
46942;BME280;32676;52.630;4.896;2023-04-15T00:08:46;100210.78;;;9.01;69.86
46942;BME280;32676;52.630;4.896;2023-04-15T00:11:12;100216.03;;;9.01;69.79
46942;BME280;32676;52.630;4.896;2023-04-15T00:13:39;100216.03;;;9.01;70.03
46942;BME280;32676;52.630;4.896;2023-04-15T00:16:06;100213.41;;;9.01;69.97
46942;BME280;32676;52.630;4.896;2023-04-15T00:18:32;100216.03;;;9.01;69.78
46942;BME280;32676;52.630;4.896;2023-04-15T00:21:00;100206.50;;;8.98;70.13
46942;BME280;32676;52.630;4.896;2023-04-15T00:23:27;100216.13;;;8.98;70.18
46942;BME280;32676;52.630;4.896;2023-04-15T00:25:53;100197.00;;;8.96;70.41
46942;BME280;32676;52.630;4.896;2023-04-15T00:28:19;100193.47;;;8.97;70.57
46942;BME280;32676;52.630;4.896;2023-04-15T00:30:46;100188.34;;;8.94;70.95
46942;BME280;32676;52.630;4.896;2023-04-15T00:33:12;100178.00;;;8.89;71.02
46942;BME280;32676;52.630;4.896;2023-04-15T00:35:40;100170.19;;;8.88;71.48
46942;BME280;32676;52.630;4.896;2023-04-15T00:38:08;100139.91;;;8.80;71.77
46942;BME280;32676;52.630;4.896;2023-04-15T00:40:34;100115.66;;;8.75;71.89
46942;BME280;32676;52.630;4.896;2023-04-15T00:43:00;100092.28;;;8.69;72.19
46942;BME280;32676;52.630;4.896;2023-04-15T00:45:28;100075.03;;;8.63;72.28
46942;BME280;32676;52.630;4.896;2023-04-15T00:47:54;100055.16;;;8.58;72.51
46942;BME280;32676;52.630;4.896;2023-04-15T00:50:21;100042.16;;;8.55;72.49
46942;BME280;32676;52.630;4.896;2023-04-15T00:52:47;100011.88;;;8.48;72.66
46942;BME280;32676;52.630;4.896;2023-04-15T00:55:15;99985.91;;;8.41;72.63
46942;BME280;32676;52.630;4.896;2023-04-15T00:57:41;99948.75;;;8.32;72.70
46942;BME280;32676;52.630;4.896;2023-04-15T01:00:08;99925.47;;;8.24;72.84
46942;BME280;32676;52.630;4.896;2023-04-15T01:02:37;99887.38;;;8.17;72.94
46942;BME280;32676;52.630;4.896;2023-04-15T01:05:04;99854.63;;;8.06;73.07
46942;BME280;32676;52.630;4.896;2023-04-15T01:07:31;99821.75;;;7.99;73.33
46942;BME280;32676;52.630;4.896;2023-04-15T01:09:58;99790.72;;;7.90;73.52
46942;BME280;32676;52.630;4.896;2023-04-15T01:12:26;99767.31;;;7.85;73.84
46942;BME280;32676;52.630;4.896;2023-04-15T01:14:53;99743.97;;;7.81;73.94
46942;BME280;32676;52.630;4.896;2023-04-15T01:17:19;99738.88;;;7.78;74.24
46942;BME280;32676;52.630;4.896;2023-04-15T01:19:46;99728.50;;;7.75;74.35
46942;BME280;32676;52.630;4.896;2023-04-15T01:22:12;99713.84;;;7.71;74.38
46942;BME280;32676;52.630;4.896;2023-04-15T01:24:39;99696.53;;;7.68;74.56
46942;BME280;32676;52.630;4.896;2023-04-15T01:27:07;99687.19;;;7.62;74.70
46942;BME280;32676;52.630;4.896;2023-04-15T01:29:36;99656.03;;;7.56;74.92
46942;BME280;32676;52.630;4.896;2023-04-15T01:32:03;99613.72;;;7.46;75.05
46942;BME280;32676;52.630;4.896;2023-04-15T01:34:29;99592.19;;;7.40;75.20
46942;BME280;32676;52.630;4.896;2023-04-15T01:36:56;99583.56;;;7.38;75.37
46942;BME280;32676;52.630;4.896;2023-04-15T01:39:22;99581.00;;;7.36;75.59
46942;BME280;32676;52.630;4.896;2023-04-15T01:41:48;99582.78;;;7.36;75.78
46942;BME280;32676;52.630;4.896;2023-04-15T01:44:16;99558.56;;;7.30;75.84
46942;BME280;32676;52.630;4.896;2023-04-15T01:46:42;99563.75;;;7.32;75.99
46942;BME280;32676;52.630;4.896;2023-04-15T01:49:08;99568.13;;;7.32;76.22
46942;BME280;32676;52.630;4.896;2023-04-15T01:51:35;99567.25;;;7.31;76.32
46942;BME280;32676;52.630;4.896;2023-04-15T01:54:01;99573.38;;;7.32;76.58
46942;BME280;32676;52.630;4.896;2023-04-15T01:56:28;99571.53;;;7.34;76.76
46942;BME280;32676;52.630;4.896;2023-04-15T01:58:54;99586.28;;;7.35;77.06
46942;BME280;32676;52.630;4.896;2023-04-15T02:01:22;99588.00;;;7.36;77.14
46942;BME280;32676;52.630;4.896;2023-04-15T02:03:48;99596.63;;;7.38;77.28
46942;BME280;32676;52.630;4.896;2023-04-15T02:06:15;99607.03;;;7.39;77.45
46942;BME280;32676;52.630;4.896;2023-04-15T02:08:42;99614.81;;;7.41;77.66
46942;BME280;32676;52.630;4.896;2023-04-15T02:11:08;99619.09;;;7.42;77.81
46942;BME280;32676;52.630;4.896;2023-04-15T02:13:35;99617.38;;;7.42;77.81
46942;BME280;32676;52.630;4.896;2023-04-15T02:16:01;99625.13;;;7.44;78.04
46942;BME280;32676;52.630;4.896;2023-04-15T02:18:29;99631.22;;;7.44;78.01
46942;BME280;32676;52.630;4.896;2023-04-15T02:20:55;99625.13;;;7.44;78.16
46942;BME280;32676;52.630;4.896;2023-04-15T02:23:22;99625.94;;;7.46;78.15
46942;BME280;32676;52.630;4.896;2023-04-15T02:25:48;99652.88;;;7.48;78.20
46942;BME280;32676;52.630;4.896;2023-04-15T02:28:15;99653.66;;;7.50;78.21
46942;BME280;32676;52.630;4.896;2023-04-15T02:30:41;99656.28;;;7.50;78.18
46942;BME280;32676;52.630;4.896;2023-04-15T02:33:07;99651.94;;;7.49;78.27
46942;BME280;32676;52.630;4.896;2023-04-15T02:35:35;99658.81;;;7.52;78.26
46942;BME280;32676;52.630;4.896;2023-04-15T02:38:06;99656.28;;;7.50;78.27
46942;BME280;32676;52.630;4.896;2023-04-15T02:40:32;99655.44;;;7.49;78.42
46942;BME280;32676;52.630;4.896;2023-04-15T02:42:58;99649.31;;;7.49;78.46
46942;BME280;32676;52.630;4.896;2023-04-15T02:45:25;99649.47;;;7.46;78.62
46942;BME280;32676;52.630;4.896;2023-04-15T02:47:52;99635.56;;;7.44;78.53
46942;BME280;32676;52.630;4.896;2023-04-15T02:50:18;99613.19;;;7.37;78.61
46942;BME280;32676;52.630;4.896;2023-04-15T02:52:46;99587.31;;;7.30;78.83
46942;BME280;32676;52.630;4.896;2023-04-15T02:55:12;99561.44;;;7.24;78.93
46942;BME280;32676;52.630;4.896;2023-04-15T02:57:38;99532.16;;;7.16;79.07
46942;BME280;32676;52.630;4.896;2023-04-15T03:00:06;99504.56;;;7.09;79.18
46942;BME280;32676;52.630;4.896;2023-04-15T03:02:33;99483.91;;;7.03;79.29
46942;BME280;32676;52.630;4.896;2023-04-15T03:05:00;99460.59;;;6.98;79.36
46942;BME280;32676;52.630;4.896;2023-04-15T03:07:26;99454.63;;;6.95;79.38
46942;BME280;32676;52.630;4.896;2023-04-15T03:09:54;99409.72;;;6.86;79.47
46942;BME280;32676;52.630;4.896;2023-04-15T03:12:20;99411.53;;;6.84;79.38
46942;BME280;32676;52.630;4.896;2023-04-15T03:14:46;99402.00;;;6.83;79.57
46942;BME280;32676;52.630;4.896;2023-04-15T03:17:13;99408.13;;;6.82;79.61
46942;BME280;32676;52.630;4.896;2023-04-15T03:19:39;99398.59;;;6.81;79.55
46942;BME280;32676;52.630;4.896;2023-04-15T03:22:06;99392.59;;;6.79;79.56
46942;BME280;32676;52.630;4.896;2023-04-15T03:24:32;99366.72;;;6.73;79.59
46942;BME280;32676;52.630;4.896;2023-04-15T03:26:59;99352.16;;;6.67;79.73
46942;BME280;32676;52.630;4.896;2023-04-15T03:29:26;99331.47;;;6.63;79.70
46942;BME280;32676;52.630;4.896;2023-04-15T03:31:52;99308.22;;;6.57;79.88
46942;BME280;32676;52.630;4.896;2023-04-15T03:34:19;99302.22;;;6.54;79.92
46942;BME280;32676;52.630;4.896;2023-04-15T03:36:45;99304.81;;;6.54;79.98
46942;BME280;32676;52.630;4.896;2023-04-15T03:39:11;99294.53;;;6.51;80.19
46942;BME280;32676;52.630;4.896;2023-04-15T03:41:38;99275.47;;;6.49;80.12
46942;BME280;32676;52.630;4.896;2023-04-15T03:44:07;99287.59;;;6.50;80.32
46942;BME280;32676;52.630;4.896;2023-04-15T03:46:33;99284.16;;;6.50;80.35
46942;BME280;32676;52.630;4.896;2023-04-15T03:48:59;99265.28;;;6.43;80.40
46942;BME280;32676;52.630;4.896;2023-04-15T03:51:25;99247.28;;;6.37;80.49
46942;BME280;32676;52.630;4.896;2023-04-15T03:53:52;99248.88;;;6.40;80.49
46942;BME280;32676;52.630;4.896;2023-04-15T03:56:18;99233.44;;;6.35;80.56
46942;BME280;32676;52.630;4.896;2023-04-15T03:58:45;99220.50;;;6.32;80.70
46942;BME280;32676;52.630;4.896;2023-04-15T04:01:12;99227.41;;;6.33;80.82
46942;BME280;32676;52.630;4.896;2023-04-15T04:03:38;99225.72;;;6.32;80.91
46942;BME280;32676;52.630;4.896;2023-04-15T04:06:05;99232.50;;;6.36;81.13
46942;BME280;32676;52.630;4.896;2023-04-15T04:08:32;99232.63;;;6.33;80.99
46942;BME280;32676;52.630;4.896;2023-04-15T04:10:58;99232.63;;;6.33;81.06
46942;BME280;32676;52.630;4.896;2023-04-15T04:13:24;99224.91;;;6.31;80.91
46942;BME280;32676;52.630;4.896;2023-04-15T04:15:51;99208.53;;;6.28;80.96
46942;BME280;32676;52.630;4.896;2023-04-15T04:18:18;99202.53;;;6.26;80.96
46942;BME280;32676;52.630;4.896;2023-04-15T04:20:45;99186.16;;;6.22;81.03
46942;BME280;32676;52.630;4.896;2023-04-15T04:23:11;99170.66;;;6.18;80.93
46942;BME280;32676;52.630;4.896;2023-04-15T04:25:37;99158.69;;;6.13;81.14
46942;BME280;32676;52.630;4.896;2023-04-15T04:28:04;99150.91;;;6.12;81.17
46942;BME280;32676;52.630;4.896;2023-04-15T04:30:30;99138.88;;;6.09;81.36
46942;BME280;32676;52.630;4.896;2023-04-15T04:32:56;99132.84;;;6.07;81.42
46942;BME280;32676;52.630;4.896;2023-04-15T04:35:24;99147.47;;;6.11;81.70
46942;BME280;32676;52.630;4.896;2023-04-15T04:37:51;99139.81;;;6.07;81.80
46942;BME280;32676;52.630;4.896;2023-04-15T04:40:17;99120.84;;;6.03;81.87
46942;BME280;32676;52.630;4.896;2023-04-15T04:42:44;99119.16;;;6.02;82.12
46942;BME280;32676;52.630;4.896;2023-04-15T04:45:11;99132.06;;;6.05;82.24
46942;BME280;32676;52.630;4.896;2023-04-15T04:47:37;99140.75;;;6.06;82.34
46942;BME280;32676;52.630;4.896;2023-04-15T04:50:04;99135.53;;;6.06;82.36
46942;BME280;32676;52.630;4.896;2023-04-15T04:52:32;99134.66;;;6.05;82.54
46942;BME280;32676;52.630;4.896;2023-04-15T04:54:58;99132.06;;;6.05;82.57
46942;BME280;32676;52.630;4.896;2023-04-15T04:57:24;99122.63;;;6.03;82.49
46942;BME280;32676;52.630;4.896;2023-04-15T04:59:51;99125.28;;;6.01;82.71
46942;BME280;32676;52.630;4.896;2023-04-15T05:02:17;99127.03;;;6.01;82.96
46942;BME280;32676;52.630;4.896;2023-04-15T05:04:43;99129.59;;;6.02;83.17
46942;BME280;32676;52.630;4.896;2023-04-15T05:07:09;99135.66;;;6.03;83.31
46942;BME280;32676;52.630;4.896;2023-04-15T05:09:37;99138.19;;;6.04;83.62
46942;BME280;32676;52.630;4.896;2023-04-15T05:12:03;99145.09;;;6.05;83.82
46942;BME280;32676;52.630;4.896;2023-04-15T05:14:30;99148.56;;;6.06;83.86
46942;BME280;32676;52.630;4.896;2023-04-15T05:16:57;99150.31;;;6.05;83.96
46942;BME280;32676;52.630;4.896;2023-04-15T05:19:23;99138.19;;;6.04;84.11
46942;BME280;32676;52.630;4.896;2023-04-15T05:21:49;99158.91;;;6.07;84.18
46942;BME280;32676;52.630;4.896;2023-04-15T05:24:16;99174.44;;;6.10;84.16
46942;BME280;32676;52.630;4.896;2023-04-15T05:26:44;99191.66;;;6.14;84.25
46942;BME280;32676;52.630;4.896;2023-04-15T05:29:10;99195.91;;;6.17;84.13
46942;BME280;32676;52.630;4.896;2023-04-15T05:31:36;99214.91;;;6.21;84.04
46942;BME280;32676;52.630;4.896;2023-04-15T05:34:02;99224.28;;;6.25;84.12
46942;BME280;32676;52.630;4.896;2023-04-15T05:36:29;99239.81;;;6.28;84.08
46942;BME280;32676;52.630;4.896;2023-04-15T05:38:55;99267.47;;;6.32;83.82
46942;BME280;32676;52.630;4.896;2023-04-15T05:41:22;99274.31;;;6.34;83.71
46942;BME280;32676;52.630;4.896;2023-04-15T05:43:49;99278.69;;;6.34;83.64
46942;BME280;32676;52.630;4.896;2023-04-15T05:46:16;99285.53;;;6.37;83.61
46942;BME280;32676;52.630;4.896;2023-04-15T05:48:42;99291.63;;;6.37;83.62
46942;BME280;32676;52.630;4.896;2023-04-15T05:51:08;99298.53;;;6.38;83.73
46942;BME280;32676;52.630;4.896;2023-04-15T05:53:35;99315.78;;;6.42;83.98
46942;BME280;32676;52.630;4.896;2023-04-15T05:56:01;99330.38;;;6.46;84.12
46942;BME280;32676;52.630;4.896;2023-04-15T05:58:27;99351.94;;;6.51;84.43
46942;BME280;32676;52.630;4.896;2023-04-15T06:00:55;99370.84;;;6.57;84.57
46942;BME280;32676;52.630;4.896;2023-04-15T06:03:21;99410.56;;;6.65;84.81
46942;BME280;32676;52.630;4.896;2023-04-15T06:05:48;99443.22;;;6.75;85.05
46942;BME280;32676;52.630;4.896;2023-04-15T06:08:14;99483.72;;;6.85;85.27
46942;BME280;32676;52.630;4.896;2023-04-15T06:10:41;99530.38;;;6.95;85.56
46942;BME280;32676;52.630;4.896;2023-04-15T06:13:07;99570.91;;;7.05;85.98
46942;BME280;32676;52.630;4.896;2023-04-15T06:15:33;99614.91;;;7.16;85.81
46942;BME280;32676;52.630;4.896;2023-04-15T06:18:02;99664.94;;;7.28;85.93
46942;BME280;32676;52.630;4.896;2023-04-15T06:20:29;99723.69;;;7.40;85.96
46942;BME280;32676;52.630;4.896;2023-04-15T06:22:56;99761.63;;;7.52;85.73
46942;BME280;32676;52.630;4.896;2023-04-15T06:25:22;99816.06;;;7.64;85.56
46942;BME280;32676;52.630;4.896;2023-04-15T06:27:49;99867.06;;;7.76;85.40
46942;BME280;32676;52.630;4.896;2023-04-15T06:30:15;99914.66;;;7.86;84.90
46942;BME280;32676;52.630;4.896;2023-04-15T06:32:41;99949.13;;;7.97;84.50
46942;BME280;32676;52.630;4.896;2023-04-15T06:35:09;99992.44;;;8.06;84.07
46942;BME280;32676;52.630;4.896;2023-04-15T06:37:35;100028.78;;;8.14;83.62
46942;BME280;32676;52.630;4.896;2023-04-15T06:40:02;100061.56;;;8.24;83.16
46942;BME280;32676;52.630;4.896;2023-04-15T06:42:29;100096.19;;;8.32;82.82
46942;BME280;32676;52.630;4.896;2023-04-15T06:44:55;100136.06;;;8.40;82.50
46942;BME280;32676;52.630;4.896;2023-04-15T06:47:22;100177.66;;;8.50;82.13
46942;BME280;32676;52.630;4.896;2023-04-15T06:49:48;100207.03;;;8.58;81.98
46942;BME280;32676;52.630;4.896;2023-04-15T06:52:16;100246.94;;;8.66;81.55
46942;BME280;32676;52.630;4.896;2023-04-15T06:54:42;100272.91;;;8.72;81.07
46942;BME280;32676;52.630;4.896;2023-04-15T06:57:08;100296.22;;;8.80;80.53
46942;BME280;32676;52.630;4.896;2023-04-15T06:59:35;100323.19;;;8.83;80.23
46942;BME280;32676;52.630;4.896;2023-04-15T07:02:01;100348.25;;;8.91;79.58
46942;BME280;32676;52.630;4.896;2023-04-15T07:04:28;100383.84;;;8.98;79.34
46942;BME280;32676;52.630;4.896;2023-04-15T07:06:54;100422.84;;;9.07;78.97
46942;BME280;32676;52.630;4.896;2023-04-15T07:09:22;100449.69;;;9.15;78.60
46942;BME280;32676;52.630;4.896;2023-04-15T07:11:48;100486.09;;;9.25;77.82
46942;BME280;32676;52.630;4.896;2023-04-15T07:14:17;100514.75;;;9.29;77.29
46942;BME280;32676;52.630;4.896;2023-04-15T07:16:43;100552.06;;;9.39;77.08
46942;BME280;32676;52.630;4.896;2023-04-15T07:19:10;100576.38;;;9.44;76.38
46942;BME280;32676;52.630;4.896;2023-04-15T07:21:36;100602.41;;;9.50;76.54
46942;BME280;32676;52.630;4.896;2023-04-15T07:24:03;100618.03;;;9.53;76.32
46942;BME280;32676;52.630;4.896;2023-04-15T07:26:31;100637.09;;;9.58;76.02
46942;BME280;32676;52.630;4.896;2023-04-15T07:28:57;100645.81;;;9.60;75.60
46942;BME280;32676;52.630;4.896;2023-04-15T07:31:23;100655.31;;;9.63;74.78
46942;BME280;32676;52.630;4.896;2023-04-15T07:33:50;100661.38;;;9.65;74.54
46942;BME280;32676;52.630;4.896;2023-04-15T07:36:16;100684.03;;;9.68;74.45
46942;BME280;32676;52.630;4.896;2023-04-15T07:38:42;100695.25;;;9.73;74.28
46942;BME280;32676;52.630;4.896;2023-04-15T07:41:09;100730.88;;;9.80;73.89
46942;BME280;32676;52.630;4.896;2023-04-15T07:43:36;100775.22;;;9.89;74.00
46942;BME280;32676;52.630;4.896;2023-04-15T07:46:03;100809.97;;;9.97;74.20
46942;BME280;32676;52.630;4.896;2023-04-15T07:48:30;100836.84;;;10.06;74.51
46942;BME280;32676;52.630;4.896;2023-04-15T07:50:56;100853.38;;;10.09;73.96
46942;BME280;32676;52.630;4.896;2023-04-15T07:53:22;100870.78;;;10.13;73.20
46942;BME280;32676;52.630;4.896;2023-04-15T07:55:49;100899.41;;;10.21;72.78
46942;BME280;32676;52.630;4.896;2023-04-15T07:58:15;100911.63;;;10.22;72.63
46942;BME280;32676;52.630;4.896;2023-04-15T08:00:43;100922.06;;;10.25;71.76
46942;BME280;32676;52.630;4.896;2023-04-15T08:03:09;100955.16;;;10.32;71.73
46942;BME280;32676;52.630;4.896;2023-04-15T08:05:35;100963.84;;;10.34;71.96
46942;BME280;32676;52.630;4.896;2023-04-15T08:08:02;100975.97;;;10.38;71.18
46942;BME280;32676;52.630;4.896;2023-04-15T08:10:28;100989.94;;;10.41;70.67
46942;BME280;32676;52.630;4.896;2023-04-15T08:12:54;101009.03;;;10.46;70.94
46942;BME280;32676;52.630;4.896;2023-04-15T08:15:21;101016.84;;;10.49;70.80
46942;BME280;32676;52.630;4.896;2023-04-15T08:17:49;101025.56;;;10.49;70.48
46942;BME280;32676;52.630;4.896;2023-04-15T08:20:15;101029.09;;;10.50;70.54
46942;BME280;32676;52.630;4.896;2023-04-15T08:22:41;101053.41;;;10.56;70.39
46942;BME280;32676;52.630;4.896;2023-04-15T08:25:08;101101.31;;;10.66;70.77
46942;BME280;32676;52.630;4.896;2023-04-15T08:27:34;101140.47;;;10.75;70.79
46942;BME280;32676;52.630;4.896;2023-04-15T08:30:01;101159.56;;;10.82;71.37
46942;BME280;32676;52.630;4.896;2023-04-15T08:32:28;101198.78;;;10.90;71.48
46942;BME280;32676;52.630;4.896;2023-04-15T08:34:56;101207.50;;;10.92;71.55
46942;BME280;32676;52.630;4.896;2023-04-15T08:37:22;101233.63;;;10.98;71.11
46942;BME280;32676;52.630;4.896;2023-04-15T08:39:48;101259.75;;;11.04;70.71
46942;BME280;32676;52.630;4.896;2023-04-15T08:42:16;101283.28;;;11.09;70.09
46942;BME280;32676;52.630;4.896;2023-04-15T08:44:42;101287.63;;;11.11;69.59
46942;BME280;32676;52.630;4.896;2023-04-15T08:47:09;101286.72;;;11.11;68.98
46942;BME280;32676;52.630;4.896;2023-04-15T08:49:38;101292.88;;;11.11;68.92
46942;BME280;32676;52.630;4.896;2023-04-15T08:52:06;101310.28;;;11.16;68.65
46942;BME280;32676;52.630;4.896;2023-04-15T08:54:33;101336.44;;;11.22;68.86
46942;BME280;32676;52.630;4.896;2023-04-15T08:57:00;101360.00;;;11.26;68.39
46942;BME280;32676;52.630;4.896;2023-04-15T08:59:27;101385.28;;;11.32;68.83
46942;BME280;32676;52.630;4.896;2023-04-15T09:01:55;101416.59;;;11.41;68.90
46942;BME280;32676;52.630;4.896;2023-04-15T09:04:22;101420.09;;;11.42;69.13
46942;BME280;32676;52.630;4.896;2023-04-15T09:06:48;101448.81;;;11.49;68.70
46942;BME280;32676;52.630;4.896;2023-04-15T09:09:17;101487.25;;;11.57;68.35
46942;BME280;32676;52.630;4.896;2023-04-15T09:11:43;101540.44;;;11.69;68.46
46942;BME280;32676;52.630;4.896;2023-04-15T09:14:10;101568.31;;;11.78;67.83
46942;BME280;32676;52.630;4.896;2023-04-15T09:19:28;101645.16;;;11.96;66.94
46942;BME280;32676;52.630;4.896;2023-04-15T09:21:55;101701.03;;;12.08;66.16
46942;BME280;32676;52.630;4.896;2023-04-15T09:24:23;101731.66;;;12.14;65.73
46942;BME280;32676;52.630;4.896;2023-04-15T09:26:51;101720.28;;;12.12;65.59
46942;BME280;32676;52.630;4.896;2023-04-15T09:29:17;101730.75;;;12.15;65.23
46942;BME280;32676;52.630;4.896;2023-04-15T09:31:43;101694.06;;;12.06;64.54
46942;BME280;32676;52.630;4.896;2023-04-15T09:34:10;101683.63;;;12.03;64.43
46942;BME280;32676;52.630;4.896;2023-04-15T09:36:52;101678.34;;;12.03;64.71
46942;BME280;32676;52.630;4.896;2023-04-15T09:39:19;101641.72;;;11.94;64.25
46942;BME280;32676;52.630;4.896;2023-04-15T09:41:47;101606.75;;;11.85;64.45
46942;BME280;32676;52.630;4.896;2023-04-15T09:44:28;101591.03;;;11.82;64.33
46942;BME280;32676;52.630;4.896;2023-04-15T09:46:55;101643.47;;;11.93;64.45
46942;BME280;32676;52.630;4.896;2023-04-15T09:49:21;101697.56;;;12.08;64.69
46942;BME280;32676;52.630;4.896;2023-04-15T09:51:47;101711.56;;;12.10;65.27
46942;BME280;32676;52.630;4.896;2023-04-15T09:54:17;101694.94;;;12.06;65.46
46942;BME280;32676;52.630;4.896;2023-04-15T09:56:44;101715.91;;;12.11;65.36
46942;BME280;32676;52.630;4.896;2023-04-15T09:59:11;101721.13;;;12.13;65.20
46942;BME280;32676;52.630;4.896;2023-04-15T10:01:38;101701.00;;;12.10;65.13
46942;BME280;32676;52.630;4.896;2023-04-15T10:04:05;101708.00;;;12.11;64.82
46942;BME280;32676;52.630;4.896;2023-04-15T10:06:32;101725.56;;;12.12;64.65
46942;BME280;32676;52.630;4.896;2023-04-15T10:08:58;101744.75;;;12.17;64.01
46942;BME280;32676;52.630;4.896;2023-04-15T10:11:27;101770.94;;;12.23;64.44
46942;BME280;32676;52.630;4.896;2023-04-15T10:13:53;101755.19;;;12.20;64.58
46942;BME280;32676;52.630;4.896;2023-04-15T10:16:24;101729.00;;;12.14;64.44
46942;BME280;32676;52.630;4.896;2023-04-15T10:18:53;101646.09;;;11.93;64.40
46942;BME280;32676;52.630;4.896;2023-04-15T10:21:20;101622.50;;;11.88;64.51
46942;BME280;32676;52.630;4.896;2023-04-15T10:23:47;101662.69;;;11.97;64.70
46942;BME280;32676;52.630;4.896;2023-04-15T10:26:14;101704.56;;;12.07;64.56
46942;BME280;32676;52.630;4.896;2023-04-15T10:28:41;101743.84;;;12.18;64.32
46942;BME280;32676;52.630;4.896;2023-04-15T10:31:08;101775.25;;;12.26;64.01
46942;BME280;32676;52.630;4.896;2023-04-15T10:33:38;101757.81;;;12.22;64.08
46942;BME280;32676;52.630;4.896;2023-04-15T10:36:04;101780.50;;;12.27;63.99
46942;BME280;32676;52.630;4.896;2023-04-15T10:38:33;101811.06;;;12.35;63.72
46942;BME280;32676;52.630;4.896;2023-04-15T10:41:12;101816.34;;;12.35;63.00
46942;BME280;32676;52.630;4.896;2023-04-15T10:43:39;101812.00;;;12.34;63.25
46942;BME280;32676;52.630;4.896;2023-04-15T10:46:05;101833.84;;;12.39;63.20
46942;BME280;32676;52.630;4.896;2023-04-15T10:48:31;101856.50;;;12.46;62.91
46942;BME280;32676;52.630;4.896;2023-04-15T10:51:00;101877.53;;;12.49;62.74
46942;BME280;32676;52.630;4.896;2023-04-15T10:53:27;101818.09;;;12.36;63.48
46942;BME280;32676;52.630;4.896;2023-04-15T10:55:55;101781.41;;;12.26;63.65
46942;BME280;32676;52.630;4.896;2023-04-15T10:58:22;101780.53;;;12.26;63.99
46942;BME280;32676;52.630;4.896;2023-04-15T11:00:49;101785.75;;;12.29;64.12
46942;BME280;32676;52.630;4.896;2023-04-15T11:03:16;101795.34;;;12.32;64.29
46942;BME280;32676;52.630;4.896;2023-04-15T11:05:49;101800.63;;;12.32;64.33
46942;BME280;32676;52.630;4.896;2023-04-15T11:08:17;101809.38;;;12.34;64.42
46942;BME280;32676;52.630;4.896;2023-04-15T11:13:28;101898.50;;;12.55;64.40
46942;BME280;32676;52.630;4.896;2023-04-15T11:15:56;101948.28;;;12.67;64.04
46942;BME280;32676;52.630;4.896;2023-04-15T11:18:24;101971.00;;;12.73;63.93
46942;BME280;32676;52.630;4.896;2023-04-15T11:20:52;101910.69;;;12.59;63.71
46942;BME280;32676;52.630;4.896;2023-04-15T11:23:27;101880.97;;;12.51;63.38
46942;BME280;32676;52.630;4.896;2023-04-15T11:25:54;101846.03;;;12.43;63.27
46942;BME280;32676;52.630;4.896;2023-04-15T11:28:22;101826.81;;;12.38;64.20
46942;BME280;32676;52.630;4.896;2023-04-15T11:30:50;101811.06;;;12.35;64.71
46942;BME280;32676;52.630;4.896;2023-04-15T11:33:16;101836.38;;;12.42;65.56
46942;BME280;32676;52.630;4.896;2023-04-15T11:35:43;101874.88;;;12.49;65.69
46942;BME280;32676;52.630;4.896;2023-04-15T11:38:09;101886.25;;;12.51;65.07
46942;BME280;32676;52.630;4.896;2023-04-15T11:40:38;101891.47;;;12.54;63.95
46942;BME280;32676;52.630;4.896;2023-04-15T11:43:06;101864.38;;;12.47;63.43
46942;BME280;32676;52.630;4.896;2023-04-15T11:45:32;101879.25;;;12.50;63.46
46942;BME280;32676;52.630;4.896;2023-04-15T11:48:05;101837.31;;;12.41;63.25
46942;BME280;32676;52.630;4.896;2023-04-15T11:50:32;101832.03;;;12.41;62.91
46942;BME280;32676;52.630;4.896;2023-04-15T11:52:58;101846.03;;;12.43;62.75
46942;BME280;32676;52.630;4.896;2023-04-15T11:55:25;101847.75;;;12.44;63.28
46942;BME280;32676;52.630;4.896;2023-04-15T11:58:06;101874.88;;;12.49;63.83
46942;BME280;32676;52.630;4.896;2023-04-15T12:00:33;101896.75;;;12.54;62.96
46942;BME280;32676;52.630;4.896;2023-04-15T12:06:03;101901.06;;;12.57;62.24
46942;BME280;32676;52.630;4.896;2023-04-15T12:11:11;101901.94;;;12.57;63.01
46942;BME280;32676;52.630;4.896;2023-04-15T12:13:38;101942.19;;;12.65;63.15
46942;BME280;32676;52.630;4.896;2023-04-15T12:16:08;101988.47;;;12.79;63.57
46942;BME280;32676;52.630;4.896;2023-04-15T12:18:36;101986.69;;;12.79;63.56
46942;BME280;32676;52.630;4.896;2023-04-15T12:21:03;101972.75;;;12.74;63.81
46942;BME280;32676;52.630;4.896;2023-04-15T12:23:30;101975.34;;;12.76;63.42
46942;BME280;32676;52.630;4.896;2023-04-15T12:25:56;101966.63;;;12.74;62.96
46942;BME280;32676;52.630;4.896;2023-04-15T12:28:22;101915.03;;;12.60;62.55
46942;BME280;32676;52.630;4.896;2023-04-15T12:30:50;101891.47;;;12.54;62.03
46942;BME280;32676;52.630;4.896;2023-04-15T12:33:17;101874.00;;;12.50;61.79
46942;BME280;32676;52.630;4.896;2023-04-15T12:35:43;101861.75;;;12.46;62.03
46942;BME280;32676;52.630;4.896;2023-04-15T12:38:10;101858.25;;;12.47;62.52
46942;BME280;32676;52.630;4.896;2023-04-15T12:40:36;101873.06;;;12.51;63.04
46942;BME280;32676;52.630;4.896;2023-04-15T12:43:02;101926.41;;;12.62;62.62
46942;BME280;32676;52.630;4.896;2023-04-15T12:45:29;101906.28;;;12.60;63.20
46942;BME280;32676;52.630;4.896;2023-04-15T12:47:57;101853.84;;;12.46;63.06
46942;BME280;32676;52.630;4.896;2023-04-15T12:50:23;101802.34;;;12.33;62.99
46942;BME280;32676;52.630;4.896;2023-04-15T12:52:49;101779.66;;;12.25;63.40
46942;BME280;32676;52.630;4.896;2023-04-15T12:55:16;101755.16;;;12.22;64.08
46942;BME280;32676;52.630;4.896;2023-04-15T12:57:42;101729.81;;;12.18;64.19
46942;BME280;32676;52.630;4.896;2023-04-15T13:00:09;101745.56;;;12.19;63.99
46942;BME280;32676;52.630;4.896;2023-04-15T13:02:36;101762.16;;;12.24;64.06
46942;BME280;32676;52.630;4.896;2023-04-15T13:05:04;101742.00;;;12.22;64.05
46942;BME280;32676;52.630;4.896;2023-04-15T13:07:30;101715.00;;;12.12;63.22
46942;BME280;32676;52.630;4.896;2023-04-15T13:09:56;101706.28;;;12.10;63.79